Flight Track Log - Related Links

Times and Time Zones

All times are in EDT time to prevent confusion due to time zone crossing. See the SWA1563 flight status page for this flight to view local times or setup timezone preferences in your user account.

Time Position Orientation Groundspeed Altitude Reporting Facility
EDT Latitude Longitude Course Direction KTS MPH feet Rate Location/Type
Sat 02:43:43 PM 41.7990 -87.7790 309° West 154 177 2,300  Level FlightAware ADS-B
Sat 02:44:03 PM 41.7910 -87.7980 241° Southwest 204 235 2,600 1,500 Climbing FlightAware ADS-B
Sat 02:44:23 PM 41.7740 -87.8130 213° Southwest 226 260 3,300 1,773 Climbing FlightAware ADS-B
Sat 02:44:47 PM 41.7540 -87.8320 215° Southwest 225 259 3,900 1,091 Climbing FlightAware ADS-B
Sat 02:45:07 PM 41.7350 -87.8490 214° Southwest 238 274 4,100 900 Climbing FlightAware ADS-B
Sat 02:45:27 PM 41.7160 -87.8660 214° Southwest 246 283 4,500 2,053 Climbing FlightAware ADS-B
Sat 02:45:45 PM 41.7010 -87.8810 217° Southwest 253 291 5,400 3,150 Climbing FlightAware ADS-B
Sat 02:46:07 PM 41.6790 -87.9010 214° Southwest 261 300 6,600 3,200 Climbing FlightAware ADS-B
Sat 02:46:15 PM 41.6690 -87.9060 200° South 271 312 7,000 2,571 Climbing FlightAware ADS-B
Sat 02:46:21 PM 41.6620 -87.9060 180° South 279 321 7,200 2,143 Climbing FlightAware ADS-B
Sat 02:46:43 PM 41.6340 -87.8920 160° South 303 349 8,000 2,429 Climbing FlightAware ADS-B
Sat 02:47:03 PM 41.6130 -87.8660 137° Southeast 312 359 8,900 2,591 Climbing FlightAware ADS-B
Sat 02:47:27 PM 41.5900 -87.8300 130° Southeast 320 368 9,900 1,241 Climbing FlightAware ADS-B
Sat 02:48:01 PM 41.5580 -87.7800 131° Southeast 320 368 10,100 882 Climbing FlightAware ADS-B
Sat 02:48:35 PM 41.5250 -87.7270 130° Southeast 327 376 10,900 1,371 Climbing FlightAware ADS-B
Sat 02:49:11 PM 41.4880 -87.6690 130° Southeast 363 418 11,700 1,250 Climbing FlightAware ADS-B
Sat 02:49:47 PM 41.4480 -87.6060 130° Southeast 380 437 12,400 1,273 Climbing FlightAware ADS-B
Sat 02:50:17 PM 41.4120 -87.5510 131° Southeast 390 449 13,100 1,971 Climbing FlightAware ADS-B
Sat 02:50:57 PM 41.3640 -87.4800 132° Southeast 408 470 14,700 2,500 Climbing FlightAware ADS-B
Sat 02:51:05 PM 41.3520 -87.4660 139° Southeast 410 472 15,100 3,462 Climbing FlightAware ADS-B
Sat 02:51:23 PM 41.3200 -87.4450 154° Southeast 410 472 16,200 3,111 Climbing FlightAware ADS-B
Sat 02:51:59 PM 41.2560 -87.4140 160° South 414 476 17,900 2,500 Climbing FlightAware ADS-B
Sat 02:52:35 PM 41.1920 -87.3830 160° South 427 491 19,200 2,057 Climbing FlightAware ADS-B
Sat 02:53:09 PM 41.1260 -87.3510 160° South 442 509 20,300 1,941 Climbing FlightAware ADS-B
Sat 02:53:43 PM 41.0610 -87.3190 160° South 454 522 21,400 2,028 Climbing FlightAware ADS-B
Sat 02:54:20 PM 40.9870 -87.2830 160° South 461 531 22,700 2,197 Climbing FlightAware ADS-B
Sat 02:54:54 PM 40.9180 -87.2500 160° South 464 534 24,000 2,143 Climbing FlightAware ADS-B
Sat 02:55:30 PM 40.8500 -87.2170 160° South 468 539 25,200 1,859 Climbing FlightAware ADS-B
Sat 02:56:05 PM 40.7760 -87.1810 160° South 476 548 26,200 1,543 Climbing FlightAware ADS-B
Sat 02:56:40 PM 40.7100 -87.1490 160° South 483 556 27,000 1,545 Climbing FlightAware ADS-B
Sat 02:57:11 PM 40.6350 -87.1130 160° South 491 565 27,900 1,612 Climbing FlightAware ADS-B
Sat 02:57:47 PM 40.5570 -87.0760 160° South 496 571 28,800 1,378 Climbing FlightAware ADS-B
Sat 02:58:25 PM 40.4740 -87.0360 160° South 503 579 29,600 1,216 Climbing FlightAware ADS-B
Sat 02:59:01 PM 40.3940 -86.9980 160° South 509 586 30,300 1,059 Climbing FlightAware ADS-B
Sat 02:59:33 PM 40.3230 -86.9640 160° South 519 597 30,800 1,059 Climbing FlightAware ADS-B
Sat 03:00:09 PM 40.2420 -86.9260 160° South 524 603 31,500 1,583 Climbing FlightAware ADS-B
Sat 03:00:45 PM 40.1640 -86.8890 160° South 511 588 32,700 1,917 Climbing FlightAware ADS-B
Sat 03:01:21 PM 40.0810 -86.8500 160° South 506 582 33,800 1,629 Climbing FlightAware ADS-B
Sat 03:01:55 PM 40.0070 -86.8150 160° South 501 577 34,600 1,333 Climbing FlightAware ADS-B
Sat 03:02:15 PM 39.9670 -86.7880 153° Southeast 504 580 35,000 667 Climbing FlightAware ADS-B
Sat 03:02:31 PM 39.9360 -86.7540 140° Southeast 508 585 35,000  Level FlightAware ADS-B
Sat 03:02:47 PM 39.9140 -86.7180 129° Southeast 508 585 35,000  Level FlightAware ADS-B
Sat 03:03:25 PM 39.8660 -86.6200 123° Southeast 507 583 35,000 474 Level FlightAware ADS-B
Sat 03:04:03 PM 39.8170 -86.5230 123° Southeast 501 577 35,600 1,286 Climbing FlightAware ADS-B
Sat 03:04:35 PM 39.7770 -86.4450 124° Southeast 491 565 36,500 1,200 Climbing FlightAware ADS-B
Sat 03:05:13 PM 39.7290 -86.3520 124° Southeast 489 563 37,000 429 Climbing FlightAware ADS-B
Sat 03:05:45 PM 39.6890 -86.2740 124° Southeast 491 565 37,000  Level FlightAware ADS-B
Sat 03:06:17 PM 39.6500 -86.1980 124° Southeast 492 566 37,000  Level FlightAware ADS-B
Sat 03:06:55 PM 39.6140 -86.1020 116° Southeast 498 573 37,000  Level FlightAware ADS-B
Sat 03:07:31 PM 39.5790 -85.9970 113° Southeast 499 574 37,000  Level FlightAware ADS-B
Sat 03:08:13 PM 39.5390 -85.8820 114° Southeast 501 577 37,000  Level FlightAware ADS-B
Sat 03:08:50 PM 39.5040 -85.7800 114° Southeast 502 578 37,000  Level FlightAware ADS-B
Sat 03:09:19 PM 39.4770 -85.7030 114° Southeast 503 579 37,000  Level FlightAware ADS-B
Sat 03:09:58 PM 39.4420 -85.6000 114° Southeast 504 580 37,000  Level FlightAware ADS-B
Sat 03:10:35 PM 39.4040 -85.4910 114° Southeast 506 582 37,000  Level FlightAware ADS-B
Sat 03:11:11 PM 39.3720 -85.3980 114° Southeast 506 582 37,000  Level FlightAware ADS-B
Sat 03:11:54 PM 39.3350 -85.2820 112° Southeast 514 592 37,000  Level FlightAware ADS-B
Sat 03:12:30 PM 39.3130 -85.1740 105° East 519 597 37,000  Level FlightAware ADS-B
Sat 03:13:04 PM 39.2900 -85.0590 104° East 520 598 37,000  Level FlightAware ADS-B
Sat 03:13:39 PM 39.2710 -84.9580 104° East 516 594 37,000  Level FlightAware ADS-B
Sat 03:14:20 PM 39.2400 -84.8420 109° East 505 581 37,000  Level FlightAware ADS-B
Sat 03:14:50 PM 39.2100 -84.7600 115° Southeast 505 581 37,000  Level FlightAware ADS-B
Sat 03:15:26 PM 39.1740 -84.6610 115° Southeast 505 581 37,000  Level FlightAware ADS-B
Sat 03:16:02 PM 39.1370 -84.5640 116° Southeast 506 582 37,000  Level FlightAware ADS-B
Sat 03:16:38 PM 39.0990 -84.4620 116° Southeast 507 583 37,000  Level FlightAware ADS-B
Sat 03:17:20 PM 39.0570 -84.3490 116° Southeast 506 582 37,000  Level FlightAware ADS-B
Sat 03:17:56 PM 39.0190 -84.2500 116° Southeast 507 583 37,000  Level FlightAware ADS-B
Sat 03:18:32 PM 38.9840 -84.1540 115° Southeast 509 586 37,000  Level FlightAware ADS-B
Sat 03:19:04 PM 38.9500 -84.0660 116° Southeast 509 586 37,000  Level FlightAware ADS-B
Sat 03:19:40 PM 38.9130 -83.9680 116° Southeast 510 587 37,000  Level FlightAware ADS-B
Sat 03:20:16 PM 38.8770 -83.8710 115° Southeast 512 589 37,000  Level FlightAware ADS-B
Sat 03:20:48 PM 38.8440 -83.7830 116° Southeast 513 590 37,000  Level FlightAware ADS-B
Sat 03:21:24 PM 38.8050 -83.6820 116° Southeast 514 592 37,000  Level FlightAware ADS-B
Sat 03:22:02 PM 38.7670 -83.5810 116° Southeast 515 593 37,000  Level FlightAware ADS-B
Sat 03:22:34 PM 38.7330 -83.4930 116° Southeast 517 595 37,000  Level FlightAware ADS-B
Sat 03:23:10 PM 38.6950 -83.3940 116° Southeast 516 594 37,000  Level FlightAware ADS-B
Sat 03:23:46 PM 38.6560 -83.2940 117° Southeast 516 594 37,000  Level FlightAware ADS-B
Sat 03:24:18 PM 38.6240 -83.2100 116° Southeast 516 594 37,000  Level FlightAware ADS-B
Sat 03:24:54 PM 38.5850 -83.1110 117° Southeast 515 593 37,000  Level FlightAware ADS-B
Sat 03:25:30 PM 38.5470 -83.0140 117° Southeast 510 587 37,000  Level FlightAware ADS-B
Sat 03:25:58 PM 38.5180 -82.9390 116° Southeast 508 585 37,000 -171 Level FlightAware ADS-B
Sat 03:26:40 PM 38.4750 -82.8280 116° Southeast 508 585 36,800 -608 Descending FlightAware ADS-B
Sat 03:27:17 PM 38.4360 -82.7290 117° Southeast 507 583 36,200 -1,130 Descending FlightAware ADS-B
Sat 03:27:49 PM 38.4010 -82.6410 117° Southeast 504 580 35,500 -1,433 Descending FlightAware ADS-B
Sat 03:28:24 PM 38.3640 -82.5490 117° Southeast 499 574 34,600 -1,775 Descending FlightAware ADS-B
Sat 03:29:00 PM 38.3270 -82.4540 116° Southeast 492 566 33,400 -2,083 Descending FlightAware ADS-B
Sat 03:29:36 PM 38.2900 -82.3630 117° Southeast 486 559 32,100 -1,200 Descending FlightAware ADS-B
Sat 03:30:10 PM 38.2570 -82.2810 117° Southeast 485 558 32,000 -86 Descending FlightAware ADS-B
Sat 03:30:46 PM 38.2190 -82.1850 117° Southeast 484 557 32,000 -500 Level FlightAware ADS-B
Sat 03:31:22 PM 38.1820 -82.0940 117° Southeast 487 560 31,400 -1,676 Descending FlightAware ADS-B
Sat 03:31:54 PM 38.1490 -82.0120 117° Southeast 485 558 30,100 -2,057 Descending FlightAware ADS-B
Sat 03:32:32 PM 38.1110 -81.9160 117° Southeast 477 549 29,000 -943 Descending FlightAware ADS-B
Sat 03:33:04 PM 38.0790 -81.8370 117° Southeast 483 556 29,000  Level FlightAware ADS-B
Sat 03:33:40 PM 38.0420 -81.7460 117° Southeast 484 557 29,000  Level FlightAware ADS-B
Sat 03:34:17 PM 38.0060 -81.6560 117° Southeast 484 557 29,000  Level FlightAware ADS-B
Sat 03:34:49 PM 37.9720 -81.5730 117° Southeast 485 558 29,000  Level FlightAware ADS-B
Sat 03:35:25 PM 37.9340 -81.4800 117° Southeast 486 559 29,000  Level FlightAware ADS-B
Sat 03:36:01 PM 37.8970 -81.3900 117° Southeast 487 560 29,000  Level FlightAware ADS-B
Sat 03:36:37 PM 37.8590 -81.2970 117° Southeast 487 560 29,000  Level FlightAware ADS-B
Sat 03:37:09 PM 37.8260 -81.2180 118° Southeast 487 560 29,000  Level FlightAware ADS-B
Sat 03:37:45 PM 37.7900 -81.1300 117° Southeast 485 558 29,000  Level FlightAware ADS-B
Sat 03:38:22 PM 37.7520 -81.0390 118° Southeast 484 557 29,000  Level FlightAware ADS-B
Sat 03:38:55 PM 37.7230 -80.9660 117° Southeast 483 556 29,000  Level FlightAware ADS-B
Sat 03:39:31 PM 37.6920 -80.8890 117° Southeast 483 556 29,000  Level FlightAware ADS-B
Sat 03:40:07 PM 37.6600 -80.8120 118° Southeast 483 556 29,000  Level FlightAware ADS-B
Sat 03:40:43 PM 37.6290 -80.7350 117° Southeast 483 556 29,000  Level FlightAware ADS-B
Sat 03:41:20 PM 37.5980 -80.6560 116° Southeast 483 556 29,000  Level FlightAware ADS-B
Sat 03:41:57 PM 37.5660 -80.5770 117° Southeast 483 556 29,000 -243 Level FlightAware ADS-B
Sat 03:42:34 PM 37.4869 -80.4108 117° Southeast 494 568 28,700 -1,224 Descending Indianapolis Center
Sat 03:43:35 PM 37.4289 -80.2725 118° Southeast 471 542 27,000 -1,854 Descending Indianapolis Center
Sat 03:44:37 PM 37.3719 -80.1383 118° Southeast 454 522 24,900 -1,463 Descending Indianapolis Center
Sat 03:45:38 PM 37.3094 -80.0169 123° Southeast 432 497 24,000 -974 Descending Indianapolis Center
Sat 03:50:56 PM 36.9050 -79.3740 123° Southeast 19,200 -986 Descending FlightAware ADS-B
Sat 03:52:26 PM 36.7950 -79.2020 129° Southeast 17,700 -1,190 Descending FlightAware ADS-B
Sat 03:53:02 PM 36.7525 -79.1383 129° Southeast 430 495 16,700 -1,688 Descending Washington Center
Sat 03:54:02 PM 36.6847 -79.0314 128° Southeast 418 481 15,000 -1,587 Descending Washington Center
Sat 03:55:03 PM 36.5942 -78.9886 159° South 360 414 13,500 -1,735 Descending Washington Center
Sat 03:55:25 PM 36.5547 -78.9817 172° South 332 382 12,600 -1,200 Descending Washington Center
Sat 04:01:13 PM 36.2270 -78.6210 172° South 219 252 6,100 -1,057 Descending FlightAware ADS-B
Sat 04:01:34 PM 36.2120 -78.6020 134° Southeast 209 241 6,100 143 Level FlightAware ADS-B
Sat 04:01:55 PM 36.1980 -78.5830 132° Southeast 212 244 6,200 133 Climbing FlightAware ADS-B
Sat 04:02:19 PM 36.1820 -78.5610 132° Southeast 212 244 6,200  Level FlightAware ADS-B
Sat 04:02:37 PM 36.1700 -78.5480 139° Southeast 210 242 6,200  Level FlightAware ADS-B
Sat 04:02:43 PM 36.1630 -78.5460 167° South 193 222 6,200 -429 Level FlightAware ADS-B
Sat 04:02:51 PM 36.1570 -78.5460 180° South 188 216 6,100 -600 Descending FlightAware ADS-B
Sat 04:03:13 PM 36.1380 -78.5480 185° South 185 213 5,900 -947 Descending FlightAware ADS-B
Sat 04:03:29 PM 36.1250 -78.5490 184° South 186 214 5,500 -1,350 Descending FlightAware ADS-B
Sat 04:03:53 PM 36.1040 -78.5520 187° South 184 212 5,000 -1,043 Descending FlightAware ADS-B
Sat 04:04:15 PM 36.0850 -78.5550 187° South 177 204 4,700 -789 Descending FlightAware ADS-B
Sat 04:04:31 PM 36.0730 -78.5600 199° South 171 197 4,500 -500 Descending FlightAware ADS-B
Sat 04:04:51 PM 36.0600 -78.5730 219° Southwest 176 203 4,400 -316 Descending FlightAware ADS-B
Sat 04:05:09 PM 36.0500 -78.5840 222° Southwest 179 206 4,300 -429 Descending FlightAware ADS-B
Sat 04:05:33 PM 36.0360 -78.6020 226° Southwest 176 203 4,100 -545 Descending FlightAware ADS-B
Sat 04:05:53 PM 36.0240 -78.6170 225° Southwest 171 197 3,900 -571 Descending FlightAware ADS-B
Sat 04:06:15 PM 36.0120 -78.6320 225° Southwest 172 198 3,700 -882 Descending FlightAware ADS-B
Sat 04:06:27 PM 36.0050 -78.6410 226° Southwest 178 205 3,400 -882 Descending FlightAware ADS-B
Sat 04:06:49 PM 35.9930 -78.6550 223° Southwest 171 197 3,200 -783 Descending FlightAware ADS-B
Sat 04:07:13 PM 35.9790 -78.6720 225° Southwest 173 199 2,800 -955 Descending FlightAware ADS-B
Sat 04:07:33 PM 35.9680 -78.6860 226° Southwest 170 196 2,500 -900 Descending FlightAware ADS-B
Sat 04:07:53 PM 35.9570 -78.7000 226° Southwest 160 184 2,200 -750 Descending FlightAware ADS-B
Sat 04:08:05 PM 35.9510 -78.7070 223° Southwest 154 177 2,100 -706 Descending FlightAware ADS-B
Sat 04:08:27 PM 35.9410 -78.7200 226° Southwest 144 166 1,800 -453 Descending FlightAware ADS-B
Sat 04:08:58 PM 35.9280 -78.7360 225° Southwest 144 166 1,700 -794 Descending FlightAware ADS-B
Sat 04:09:35 PM 35.9056 -78.7617 225° Southwest 143 165 900 -1,297 Descending Washington Center
Sat 04:11:00 PM 35.8776 -78.7875 90° East  Level Estimated
Sat 04:18:00 PM 35.8776 -78.7875 90° East  Level Estimated
Sat 04:19:00 PM 35.8776 -78.7875 90° East  Level Estimated

Login

Don't have an account? Register now (free) for customized features, flight alerts, and more!